Time;durP1;ratioP1;P1;durP2;ratioP2;P2;SDS_P1;SDS_P2;PMS_P1;PMS_P2;Temp;Humidity;BMP_temperature;BMP_pressure;BME280_temperature;BME280_humidity;BME280_pressure;Samples;Min_cycle;Max_cycle;Signal;HPM_P1;HPM_P2
2023/01/27 00:02:18;;;;;;;8.17;6.17;;;;;;;;;;5084279;28;20454;-79
2023/01/27 00:04:45;;;;;;;7.60;6.00;;;;;;;;;;5080750;28;20486;-80
2023/01/27 00:07:12;;;;;;;7.03;5.87;;;;;;;;;;5081800;28;20843;-80
2023/01/27 00:09:41;;;;;;;8.00;6.00;;;;;;;;;;5083408;28;20466;-79
2023/01/27 00:14:57;;;;;;;10.57;6.13;;;;;;;;;;5078846;28;20458;-80
2023/01/27 00:17:23;;;;;;;7.80;5.43;;;;;;;;;;5084422;28;20443;-80
2023/01/27 00:19:50;;;;;;;9.40;6.70;;;;;;;;;;5082742;28;20538;-80
2023/01/27 00:25:01;;;;;;;7.07;5.60;;;;;;;;;;5082254;28;20474;-80
2023/01/27 00:27:27;;;;;;;7.40;5.97;;;;;;;;;;5082835;28;20447;-80
2023/01/27 00:29:54;;;;;;;9.10;6.23;;;;;;;;;;5079828;28;20466;-79
2023/01/27 00:35:04;;;;;;;7.70;5.97;;;;;;;;;;5081375;28;20488;-79
2023/01/27 00:37:32;;;;;;;6.33;5.17;;;;;;;;;;5081673;28;20462;-79
2023/01/27 00:39:58;;;;;;;7.47;4.60;;;;;;;;;;5080264;28;20489;-79
2023/01/27 00:42:25;;;;;;;8.93;6.17;;;;;;;;;;5081469;28;20480;-80
2023/01/27 00:47:36;;;;;;;6.73;5.00;;;;;;;;;;5080814;28;21022;-79
2023/01/27 00:50:02;;;;;;;7.53;4.97;;;;;;;;;;5078565;28;20479;-80
2023/01/27 00:52:29;;;;;;;9.50;4.93;;;;;;;;;;5079887;28;20462;-80
2023/01/27 00:54:57;;;;;;;5.63;4.50;;;;;;;;;;5080298;28;21160;-80
2023/01/27 00:57:23;;;;;;;5.70;4.73;;;;;;;;;;5083169;28;20438;-80
2023/01/27 00:59:50;;;;;;;8.50;4.83;;;;;;;;;;5082458;28;20473;-80
2023/01/27 01:02:16;;;;;;;8.43;5.20;;;;;;;;;;5082857;28;20457;-80
2023/01/27 01:04:42;;;;;;;7.30;4.53;;;;;;;;;;5079679;28;20479;-79
2023/01/27 01:07:09;;;;;;;3.97;3.57;;;;;;;;;;5081459;28;20451;-79
2023/01/27 01:09:35;;;;;;;6.90;3.83;;;;;;;;;;5079676;28;20480;-79
2023/01/27 01:12:03;;;;;;;5.60;3.87;;;;;;;;;;5081573;28;20451;-79
2023/01/27 01:14:29;;;;;;;4.40;3.30;;;;;;;;;;5081168;28;20482;-79
2023/01/27 01:16:56;;;;;;;3.73;3.10;;;;;;;;;;5081383;28;20473;-80
2023/01/27 01:19:23;;;;;;;4.60;3.43;;;;;;;;;;5081731;28;20466;-79
2023/01/27 01:21:49;;;;;;;4.87;3.30;;;;;;;;;;5081558;28;20475;-80
2023/01/27 01:24:16;;;;;;;3.77;2.80;;;;;;;;;;5081511;28;20844;-80
2023/01/27 01:26:42;;;;;;;3.23;2.40;;;;;;;;;;5082544;28;20463;-80
2023/01/27 01:29:10;;;;;;;3.00;2.70;;;;;;;;;;5079451;28;20463;-79
2023/01/27 01:31:36;;;;;;;2.73;2.53;;;;;;;;;;5080067;28;20454;-79
2023/01/27 01:34:03;;;;;;;3.90;2.70;;;;;;;;;;5079856;28;20481;-79
2023/01/27 01:36:29;;;;;;;2.87;2.63;;;;;;;;;;5078180;28;21063;-79
2023/01/27 01:38:56;;;;;;;2.27;2.00;;;;;;;;;;5076279;28;20520;-79
2023/01/27 01:41:23;;;;;;;3.97;2.77;;;;;;;;;;5080007;28;20466;-80
2023/01/27 01:43:50;;;;;;;3.87;2.40;;;;;;;;;;5079543;27;20492;-80
2023/01/27 01:46:18;;;;;;;3.07;2.73;;;;;;;;;;5080574;28;20469;-79
2023/01/27 01:48:46;;;;;;;2.50;2.30;;;;;;;;;;5080493;28;20515;-80
2023/01/27 01:51:14;;;;;;;3.53;2.87;;;;;;;;;;5079688;28;20486;-79
2023/01/27 01:53:42;;;;;;;4.13;3.00;;;;;;;;;;5076592;28;20465;-80
2023/01/27 01:56:12;;;;;;;2.20;2.00;;;;;;;;;;5078130;28;20451;-80
2023/01/27 01:58:38;;;;;;;4.63;2.57;;;;;;;;;;5079372;28;20457;-80
2023/01/27 02:01:06;;;;;;;2.53;2.33;;;;;;;;;;5080415;28;20459;-80
2023/01/27 02:03:34;;;;;;;2.50;2.30;;;;;;;;;;5079308;28;21027;-80
2023/01/27 02:06:00;;;;;;;3.33;2.43;;;;;;;;;;5079051;28;20465;-80
2023/01/27 02:08:29;;;;;;;3.00;2.20;;;;;;;;;;5078127;28;20807;-80
2023/01/27 02:10:56;;;;;;;7.80;2.03;;;;;;;;;;5077456;28;20486;-79
2023/01/27 02:13:22;;;;;;;3.50;1.87;;;;;;;;;;5077591;28;20860;-80
2023/01/27 02:15:50;;;;;;;2.30;2.10;;;;;;;;;;5077879;28;20462;-80
2023/01/27 02:18:16;;;;;;;2.17;2.00;;;;;;;;;;5078915;28;20458;-79
2023/01/27 02:20:45;;;;;;;3.27;2.20;;;;;;;;;;5080045;28;20475;-79
2023/01/27 02:23:16;;;;;;;2.50;2.30;;;;;;;;;;5077244;28;20531;-79
2023/01/27 02:25:47;;;;;;;3.87;2.10;;;;;;;;;;5077318;28;20478;-79
2023/01/27 02:28:14;;;;;;;2.57;2.37;;;;;;;;;;5080013;28;20454;-79
2023/01/27 02:30:40;;;;;;;2.63;2.43;;;;;;;;;;5073249;28;20485;-80
2023/01/27 02:33:09;;;;;;;2.53;1.87;;;;;;;;;;5079171;28;20478;-79
2023/01/27 02:35:37;;;;;;;7.77;2.60;;;;;;;;;;5078877;28;20506;-80
2023/01/27 02:38:06;;;;;;;7.67;2.40;;;;;;;;;;5079505;28;20473;-79
2023/01/27 02:40:33;;;;;;;4.97;2.97;;;;;;;;;;5076768;28;21025;-79
2023/01/27 02:43:01;;;;;;;2.57;2.37;;;;;;;;;;5078931;28;20470;-79
2023/01/27 02:45:28;;;;;;;4.20;2.50;;;;;;;;;;5077149;28;20479;-79
2023/01/27 02:47:55;;;;;;;3.13;2.53;;;;;;;;;;5078728;28;20466;-79
2023/01/27 02:50:21;;;;;;;4.13;2.60;;;;;;;;;;5077713;28;20473;-80
2023/01/27 02:52:48;;;;;;;6.23;3.13;;;;;;;;;;5078502;28;20459;-80
2023/01/27 02:55:14;;;;;;;3.50;2.67;;;;;;;;;;5076842;28;20478;-79
2023/01/27 02:57:41;;;;;;;2.67;2.47;;;;;;;;;;5080239;28;20454;-80
2023/01/27 03:00:12;;;;;;;2.20;2.00;;;;;;;;;;5075621;28;20540;-80
2023/01/27 03:02:38;;;;;;;3.30;2.50;;;;;;;;;;5079043;28;20454;-79
2023/01/27 03:05:05;;;;;;;3.47;2.70;;;;;;;;;;5076726;28;20483;-79
2023/01/27 03:07:31;;;;;;;5.80;3.17;;;;;;;;;;5079432;28;21010;-79
2023/01/27 03:09:58;;;;;;;3.70;2.67;;;;;;;;;;5078222;28;20498;-79
2023/01/27 03:12:24;;;;;;;5.70;2.63;;;;;;;;;;5082425;28;20495;-79
2023/01/27 03:20:22;;;;;;;3.03;2.70;;;;;;;;;;5083914;28;20469;-80
2023/01/27 03:22:48;;;;;;;3.17;2.87;;;;;;;;;;5082849;28;20501;-79
2023/01/27 03:25:15;;;;;;;4.50;3.13;;;;;;;;;;5083371;28;20482;-79
2023/01/27 03:27:41;;;;;;;4.60;3.53;;;;;;;;;;5082984;28;20495;-79
2023/01/27 03:30:08;;;;;;;3.53;3.23;;;;;;;;;;5082470;28;20471;-79
2023/01/27 03:32:35;;;;;;;3.73;3.40;;;;;;;;;;5081198;28;20446;-80
2023/01/27 03:35:03;;;;;;;3.90;2.63;;;;;;;;;;5081325;28;20498;-79
2023/01/27 03:48:30;;;;;;;5.47;3.90;;;;;;;;;;5081968;28;21013;-80
2023/01/27 03:51:04;;;;;;;10.10;4.20;;;;;;;;;;5079325;28;20562;-80
2023/01/27 03:53:30;;;;;;;6.40;4.97;;;;;;;;;;5081492;28;20858;-80
2023/01/27 03:55:57;;;;;;;5.83;4.27;;;;;;;;;;5080248;28;20459;-79
2023/01/27 03:58:24;;;;;;;6.93;4.60;;;;;;;;;;5082364;28;20472;-79
2023/01/27 04:00:52;;;;;;;5.20;4.50;;;;;;;;;;5081661;28;20456;-80
2023/01/27 04:08:48;;;;;;;4.60;4.10;;;;;;;;;;5081155;28;20616;-79
2023/01/27 04:14:01;;;;;;;4.37;3.93;;;;;;;;;;5081616;28;20571;-79
2023/01/27 04:16:29;;;;;;;4.90;3.83;;;;;;;;;;5081009;28;20442;-80
2023/01/27 04:18:56;;;;;;;4.70;4.07;;;;;;;;;;5080310;28;20474;-79
2023/01/27 04:21:25;;;;;;;4.67;4.03;;;;;;;;;;5081088;28;20442;-80
2023/01/27 04:23:52;;;;;;;4.43;4.00;;;;;;;;;;5080966;28;20899;-79
2023/01/27 04:26:19;;;;;;;4.63;3.50;;;;;;;;;;5080781;28;20849;-79
2023/01/27 04:28:46;;;;;;;5.80;4.47;;;;;;;;;;5082456;28;20467;-79
2023/01/27 04:31:13;;;;;;;7.27;4.07;;;;;;;;;;5080487;28;20518;-79
2023/01/27 04:33:39;;;;;;;4.13;3.70;;;;;;;;;;5081997;28;20461;-80
2023/01/27 04:36:06;;;;;;;5.13;4.13;;;;;;;;;;5079399;28;20968;-80
2023/01/27 04:38:34;;;;;;;6.40;4.73;;;;;;;;;;5081254;28;20960;-80
2023/01/27 04:41:00;;;;;;;10.23;4.40;;;;;;;;;;5080326;28;20999;-80
2023/01/27 04:43:27;;;;;;;5.20;3.87;;;;;;;;;;5079835;28;20482;-79
2023/01/27 04:45:53;;;;;;;4.50;3.80;;;;;;;;;;5079570;28;20994;-81
2023/01/27 04:48:19;;;;;;;5.07;3.70;;;;;;;;;;5079754;28;20454;-81
2023/01/27 04:50:46;;;;;;;4.07;3.57;;;;;;;;;;5080125;28;20490;-79
2023/01/27 04:53:12;;;;;;;4.50;3.50;;;;;;;;;;5079972;28;20564;-79
2023/01/27 04:55:47;;;;;;;5.67;4.40;;;;;;;;;;5078756;27;20482;-81
2023/01/27 04:58:15;;;;;;;6.53;4.30;;;;;;;;;;5080662;28;20461;-81
2023/01/27 05:00:43;;;;;;;4.40;3.80;;;;;;;;;;5077586;28;20494;-81
2023/01/27 05:03:10;;;;;;;6.30;3.87;;;;;;;;;;5080255;28;20477;-81
2023/01/27 05:05:36;;;;;;;3.90;3.33;;;;;;;;;;5080882;28;20481;-81
2023/01/27 05:08:03;;;;;;;5.40;3.90;;;;;;;;;;5082106;28;20462;-81
2023/01/27 05:10:29;;;;;;;5.73;4.27;;;;;;;;;;5080019;28;20475;-79
2023/01/27 05:12:57;;;;;;;4.37;3.50;;;;;;;;;;5080161;28;20470;-79
2023/01/27 05:15:24;;;;;;;6.57;4.90;;;;;;;;;;5077505;28;20852;-81
2023/01/27 05:17:50;;;;;;;6.40;4.57;;;;;;;;;;5079579;28;20465;-81
2023/01/27 05:20:17;;;;;;;4.03;3.60;;;;;;;;;;5078344;28;20474;-81
2023/01/27 05:22:43;;;;;;;5.10;3.67;;;;;;;;;;5081027;28;20462;-81
2023/01/27 05:25:11;;;;;;;5.27;4.37;;;;;;;;;;5079345;28;20479;-81
2023/01/27 05:27:37;;;;;;;4.40;4.00;;;;;;;;;;5079652;28;20462;-81
2023/01/27 05:30:07;;;;;;;4.67;4.20;;;;;;;;;;5078571;28;20478;-81
2023/01/27 05:32:33;;;;;;;3.77;3.10;;;;;;;;;;5076165;28;20881;-80
2023/01/27 05:35:00;;;;;;;4.27;3.70;;;;;;;;;;5077616;28;20853;-79
2023/01/27 05:37:26;;;;;;;5.17;3.80;;;;;;;;;;5079465;28;20474;-82
2023/01/27 05:39:54;;;;;;;4.33;3.93;;;;;;;;;;5075596;28;20482;-82
2023/01/27 05:42:20;;;;;;;4.20;3.83;;;;;;;;;;5078396;28;20465;-81
2023/01/27 05:44:46;;;;;;;5.30;4.30;;;;;;;;;;5078506;28;21000;-81
2023/01/27 05:47:14;;;;;;;5.00;3.70;;;;;;;;;;5078205;28;20453;-79
2023/01/27 05:49:41;;;;;;;5.47;3.60;;;;;;;;;;5078770;28;20531;-81
2023/01/27 05:52:07;;;;;;;7.43;4.17;;;;;;;;;;5080158;28;20485;-81
2023/01/27 05:54:34;;;;;;;4.70;3.57;;;;;;;;;;5079302;28;21008;-79
2023/01/27 05:57:00;;;;;;;4.67;4.17;;;;;;;;;;5079180;28;20824;-79
2023/01/27 05:59:26;;;;;;;8.10;3.97;;;;;;;;;;5080242;28;21077;-80
2023/01/27 06:01:53;;;;;;;5.07;3.73;;;;;;;;;;5078165;28;20466;-81
2023/01/27 06:04:21;;;;;;;5.53;4.00;;;;;;;;;;5077699;28;20474;-79
2023/01/27 06:06:48;;;;;;;4.87;4.23;;;;;;;;;;5078105;28;20964;-80
2023/01/27 06:09:14;;;;;;;4.37;3.60;;;;;;;;;;5080435;28;20479;-81
2023/01/27 06:11:44;;;;;;;5.00;4.43;;;;;;;;;;5082395;28;20997;-79
2023/01/27 06:14:10;;;;;;;4.70;4.30;;;;;;;;;;5079760;28;20489;-80
2023/01/27 06:16:36;;;;;;;5.10;4.50;;;;;;;;;;5082472;28;20446;-80
2023/01/27 06:19:03;;;;;;;7.53;4.57;;;;;;;;;;5081378;28;20474;-80
2023/01/27 06:21:31;;;;;;;6.00;4.60;;;;;;;;;;5078836;28;20446;-80
2023/01/27 06:23:58;;;;;;;4.00;3.33;;;;;;;;;;5079969;28;20474;-80
2023/01/27 06:26:24;;;;;;;5.60;5.00;;;;;;;;;;5081365;28;20487;-80
2023/01/27 06:28:52;;;;;;;5.80;4.37;;;;;;;;;;5078449;28;20465;-80
2023/01/27 06:31:20;;;;;;;5.20;4.70;;;;;;;;;;5079033;28;20486;-79
2023/01/27 06:33:46;;;;;;;5.80;4.33;;;;;;;;;;5075696;28;20561;-81
2023/01/27 06:36:14;;;;;;;6.60;5.27;;;;;;;;;;5077211;28;20461;-81
2023/01/27 06:38:42;;;;;;;5.70;4.00;;;;;;;;;;5078178;28;20474;-82
2023/01/27 06:41:08;;;;;;;5.83;3.93;;;;;;;;;;5074951;28;20982;-81
2023/01/27 06:43:34;;;;;;;4.80;3.40;;;;;;;;;;5077912;28;20478;-79
2023/01/27 06:46:01;;;;;;;5.97;4.60;;;;;;;;;;5080009;28;20536;-79
2023/01/27 06:48:27;;;;;;;4.77;3.80;;;;;;;;;;5083280;28;20983;-79
2023/01/27 06:50:54;;;;;;;5.93;4.40;;;;;;;;;;5083009;28;20489;-80
2023/01/27 06:53:21;;;;;;;5.77;4.13;;;;;;;;;;5083157;28;20478;-80
2023/01/27 06:55:55;;;;;;;5.23;4.17;;;;;;;;;;5084174;28;20459;-80
2023/01/27 06:58:22;;;;;;;5.90;4.97;;;;;;;;;;5072384;28;20476;-80
2023/01/27 07:00:49;;;;;;;5.50;4.13;;;;;;;;;;5083109;28;20467;-79
2023/01/27 07:03:15;;;;;;;6.43;3.73;;;;;;;;;;5084121;28;21171;-81
2023/01/27 07:05:42;;;;;;;6.53;4.87;;;;;;;;;;5082111;27;20482;-81
2023/01/27 07:08:08;;;;;;;7.13;4.33;;;;;;;;;;5082435;28;20968;-82
2023/01/27 07:10:35;;;;;;;6.33;4.53;;;;;;;;;;5080827;27;20479;-82
2023/01/27 07:13:06;;;;;;;4.40;3.53;;;;;;;;;;5080648;28;20500;-82
2023/01/27 07:15:33;;;;;;;7.37;4.30;;;;;;;;;;5080588;28;20482;-81
2023/01/27 07:18:00;;;;;;;5.53;4.43;;;;;;;;;;5083744;28;20466;-81
2023/01/27 07:20:27;;;;;;;5.43;4.30;;;;;;;;;;5082221;28;20917;-81
2023/01/27 07:22:55;;;;;;;7.07;3.70;;;;;;;;;;5081530;28;20473;-80
2023/01/27 07:25:22;;;;;;;6.00;5.00;;;;;;;;;;5083967;28;21423;-79
2023/01/27 07:27:49;;;;;;;4.83;4.20;;;;;;;;;;5082743;28;20473;-79
2023/01/27 07:30:17;;;;;;;5.73;4.93;;;;;;;;;;5082555;28;20469;-80
2023/01/27 07:32:43;;;;;;;4.60;3.97;;;;;;;;;;5084450;28;20481;-80
2023/01/27 07:35:10;;;;;;;5.40;3.90;;;;;;;;;;5080646;28;20482;-80
2023/01/27 07:37:36;;;;;;;4.80;3.43;;;;;;;;;;5083585;28;20540;-79
2023/01/27 07:40:03;;;;;;;4.30;3.50;;;;;;;;;;5080694;28;21109;-79
2023/01/27 07:42:29;;;;;;;4.00;3.20;;;;;;;;;;5078446;28;20477;-79
2023/01/27 07:44:56;;;;;;;11.13;3.93;;;;;;;;;;5081580;28;20474;-79
2023/01/27 07:47:25;;;;;;;4.53;3.80;;;;;;;;;;5082844;28;20450;-79
2023/01/27 07:49:51;;;;;;;5.30;4.40;;;;;;;;;;5079189;28;20516;-80
2023/01/27 07:52:18;;;;;;;5.33;4.20;;;;;;;;;;5084327;28;20485;-79
2023/01/27 07:54:44;;;;;;;4.53;4.03;;;;;;;;;;5085558;28;20478;-79
2023/01/27 07:57:10;;;;;;;4.90;4.40;;;;;;;;;;5082183;28;20459;-79
2023/01/27 07:59:38;;;;;;;5.17;3.67;;;;;;;;;;5082382;28;20489;-79
2023/01/27 08:02:05;;;;;;;5.47;4.00;;;;;;;;;;5082123;28;20461;-80
2023/01/27 08:04:33;;;;;;;5.30;4.70;;;;;;;;;;5080762;28;20509;-79
2023/01/27 08:07:00;;;;;;;3.90;3.50;;;;;;;;;;5080621;28;20481;-81
2023/01/27 08:09:27;;;;;;;4.40;3.23;;;;;;;;;;5081297;28;20482;-80
2023/01/27 08:11:53;;;;;;;4.60;4.20;;;;;;;;;;5079862;28;20859;-79
2023/01/27 08:14:20;;;;;;;4.07;3.13;;;;;;;;;;5082442;28;20475;-81
2023/01/27 08:16:46;;;;;;;5.17;3.63;;;;;;;;;;5079404;28;20454;-81
2023/01/27 08:19:12;;;;;;;3.33;3.07;;;;;;;;;;5081617;28;20520;-82
2023/01/27 08:21:43;;;;;;;2.87;2.57;;;;;;;;;;5081140;28;20882;-80
2023/01/27 08:24:11;;;;;;;4.50;3.63;;;;;;;;;;5080801;28;21014;-79
2023/01/27 08:26:38;;;;;;;7.23;2.70;;;;;;;;;;5082049;28;20463;-80
2023/01/27 08:29:04;;;;;;;3.80;3.03;;;;;;;;;;5081275;28;20474;-80
2023/01/27 08:31:30;;;;;;;2.50;2.30;;;;;;;;;;5082958;28;20502;-80
2023/01/27 08:33:57;;;;;;;4.40;2.37;;;;;;;;;;5077696;28;20476;-80
2023/01/27 08:36:23;;;;;;;3.57;2.20;;;;;;;;;;5081860;28;20478;-82
2023/01/27 08:38:51;;;;;;;2.40;2.20;;;;;;;;;;5081885;28;20994;-79
2023/01/27 08:41:19;;;;;;;2.63;2.20;;;;;;;;;;5080879;28;20454;-80
2023/01/27 08:43:46;;;;;;;2.73;2.20;;;;;;;;;;5081739;28;20478;-81
2023/01/27 08:46:12;;;;;;;3.47;3.07;;;;;;;;;;5079974;28;20458;-81
2023/01/27 08:48:39;;;;;;;2.80;2.60;;;;;;;;;;5080214;28;20472;-80
2023/01/27 08:51:08;;;;;;;5.67;2.87;;;;;;;;;;5080223;28;20457;-80
2023/01/27 08:53:35;;;;;;;3.03;2.00;;;;;;;;;;5077647;28;20477;-81
2023/01/27 08:56:04;;;;;;;2.60;2.20;;;;;;;;;;5082499;28;20493;-79
2023/01/27 08:58:32;;;;;;;3.70;2.30;;;;;;;;;;5080870;28;20459;-80
2023/01/27 09:01:00;;;;;;;4.67;2.40;;;;;;;;;;5081671;28;20470;-80
2023/01/27 09:03:27;;;;;;;5.07;2.87;;;;;;;;;;5079517;28;20885;-80
2023/01/27 09:05:54;;;;;;;2.40;2.30;;;;;;;;;;5082225;28;20455;-79
2023/01/27 09:08:20;;;;;;;2.00;1.90;;;;;;;;;;5078747;28;21136;-80
2023/01/27 09:10:46;;;;;;;3.30;3.00;;;;;;;;;;5082892;28;21096;-79
2023/01/27 09:13:15;;;;;;;4.10;3.10;;;;;;;;;;5082196;28;20511;-79
2023/01/27 09:15:42;;;;;;;4.10;3.67;;;;;;;;;;5078605;28;20488;-80
2023/01/27 09:18:10;;;;;;;4.30;3.30;;;;;;;;;;5069749;28;20862;-80
2023/01/27 09:20:37;;;;;;;3.60;3.30;;;;;;;;;;5070072;27;20482;-80
2023/01/27 09:23:04;;;;;;;4.83;3.03;;;;;;;;;;5079930;28;20589;-80
2023/01/27 09:25:30;;;;;;;3.80;3.07;;;;;;;;;;5080912;28;20790;-80
2023/01/27 09:27:57;;;;;;;3.60;3.30;;;;;;;;;;5081523;28;20466;-80
2023/01/27 09:30:27;;;;;;;4.93;2.80;;;;;;;;;;5076265;28;20993;-80
2023/01/27 09:32:57;;;;;;;3.70;2.70;;;;;;;;;;5077785;28;20995;-80
2023/01/27 09:35:24;;;;;;;2.93;2.73;;;;;;;;;;5076294;27;20489;-79
2023/01/27 09:37:53;;;;;;;3.53;3.20;;;;;;;;;;5077769;28;20458;-80
2023/01/27 09:40:25;;;;;;;4.80;3.30;;;;;;;;;;5081914;28;20480;-80
2023/01/27 09:43:19;;;;;;;3.27;2.97;;;;;;;;;;5080346;28;20478;-80
2023/01/27 09:46:00;;;;;;;3.20;3.00;;;;;;;;;;5055681;28;20469;-80
2023/01/27 09:48:37;;;;;;;5.80;2.67;;;;;;;;;;5079641;28;20451;-78
2023/01/27 09:51:08;;;;;;;4.10;2.43;;;;;;;;;;5081165;28;20478;-78
2023/01/27 09:53:41;;;;;;;3.10;2.83;;;;;;;;;;5076520;28;20482;-79
2023/01/27 09:56:09;;;;;;;3.10;2.10;;;;;;;;;;5081253;28;21005;-78
2023/01/27 09:58:42;;;;;;;2.43;2.10;;;;;;;;;;5079858;28;20458;-79
2023/01/27 10:01:17;;;;;;;2.90;2.47;;;;;;;;;;5080815;28;20486;-78
2023/01/27 10:03:55;;;;;;;3.67;2.47;;;;;;;;;;5081509;28;21073;-79
2023/01/27 10:06:33;;;;;;;2.20;2.10;;;;;;;;;;5080065;27;20478;-78
2023/01/27 10:09:07;;;;;;;2.40;2.20;;;;;;;;;;5079395;28;20462;-78
2023/01/27 10:11:38;;;;;;;2.10;1.83;;;;;;;;;;5081406;28;20476;-79
2023/01/27 10:14:11;;;;;;;2.10;1.90;;;;;;;;;;5078842;28;20483;-78
2023/01/27 10:16:58;;;;;;;2.57;2.10;;;;;;;;;;5079912;28;20478;-78
2023/01/27 10:19:33;;;;;;;4.40;3.83;;;;;;;;;;5074682;28;21018;-80
2023/01/27 10:22:07;;;;;;;2.47;2.27;;;;;;;;;;5078695;28;20465;-80
2023/01/27 10:24:38;;;;;;;2.60;2.40;;;;;;;;;;5079404;28;20477;-80
2023/01/27 10:27:08;;;;;;;3.13;2.90;;;;;;;;;;5079543;28;20480;-80
2023/01/27 10:29:37;;;;;;;2.87;2.57;;;;;;;;;;5079007;28;20484;-80
2023/01/27 10:32:07;;;;;;;2.60;2.33;;;;;;;;;;5079865;28;21088;-80
2023/01/27 10:34:36;;;;;;;2.00;1.77;;;;;;;;;;5082260;28;20474;-78
2023/01/27 10:37:09;;;;;;;1.93;1.83;;;;;;;;;;5079126;28;21026;-79
2023/01/27 10:39:42;;;;;;;2.70;2.50;;;;;;;;;;5080623;28;20974;-78
2023/01/27 10:42:12;;;;;;;3.70;2.17;;;;;;;;;;5081011;28;20509;-78
2023/01/27 10:44:46;;;;;;;3.73;1.73;;;;;;;;;;5079181;28;20480;-79
2023/01/27 10:47:19;;;;;;;5.00;2.13;;;;;;;;;;5079781;28;20462;-79
2023/01/27 10:49:50;;;;;;;1.60;1.50;;;;;;;;;;5079923;28;20950;-79
2023/01/27 10:52:19;;;;;;;4.60;2.30;;;;;;;;;;5076942;28;20579;-79
2023/01/27 10:54:49;;;;;;;3.57;2.60;;;;;;;;;;5080193;28;20454;-79
2023/01/27 10:57:17;;;;;;;3.20;1.93;;;;;;;;;;5079037;28;20475;-79
2023/01/27 10:59:48;;;;;;;3.00;2.17;;;;;;;;;;5080884;28;20996;-79
2023/01/27 11:02:17;;;;;;;2.70;1.90;;;;;;;;;;5078868;28;20481;-79
2023/01/27 11:04:46;;;;;;;3.73;2.83;;;;;;;;;;5080332;28;20478;-79
2023/01/27 11:07:16;;;;;;;2.47;2.23;;;;;;;;;;5074571;28;20528;-79
2023/01/27 11:09:47;;;;;;;2.73;2.53;;;;;;;;;;5079728;28;20972;-79
2023/01/27 11:12:14;;;;;;;2.73;2.53;;;;;;;;;;5076702;28;20861;-79
2023/01/27 11:14:44;;;;;;;2.80;2.60;;;;;;;;;;5077273;28;20473;-79
2023/01/27 11:17:15;;;;;;;4.57;2.73;;;;;;;;;;5077184;28;21030;-79
2023/01/27 11:19:44;;;;;;;2.40;2.20;;;;;;;;;;5081325;28;20446;-79
2023/01/27 11:22:17;;;;;;;3.73;2.93;;;;;;;;;;5078726;28;20470;-80
2023/01/27 11:24:45;;;;;;;2.97;2.70;;;;;;;;;;5078743;28;20473;-78
2023/01/27 11:27:18;;;;;;;2.70;2.50;;;;;;;;;;5074894;28;21052;-79
2023/01/27 11:29:47;;;;;;;2.77;2.40;;;;;;;;;;5081198;28;21025;-79
2023/01/27 11:32:18;;;;;;;3.60;1.97;;;;;;;;;;5081520;28;20462;-79
2023/01/27 11:34:46;;;;;;;4.50;2.10;;;;;;;;;;5085462;28;20481;-79
2023/01/27 11:37:17;;;;;;;2.97;2.77;;;;;;;;;;5085671;28;20474;-79
2023/01/27 11:39:43;;;;;;;4.60;2.20;;;;;;;;;;5085063;28;20462;-79
2023/01/27 11:42:10;;;;;;;2.07;1.93;;;;;;;;;;5083646;28;20474;-79
2023/01/27 11:44:37;;;;;;;4.83;2.27;;;;;;;;;;5084063;28;20479;-79
2023/01/27 11:47:06;;;;;;;2.47;2.10;;;;;;;;;;5084282;28;20552;-79
2023/01/27 11:49:35;;;;;;;2.33;1.90;;;;;;;;;;5084292;28;20442;-79
2023/01/27 11:52:04;;;;;;;2.87;2.03;;;;;;;;;;5082550;28;20820;-79
2023/01/27 11:54:35;;;;;;;2.20;2.10;;;;;;;;;;5085344;28;20577;-79
2023/01/27 11:57:01;;;;;;;2.10;1.80;;;;;;;;;;5083641;28;20474;-79
2023/01/27 11:59:31;;;;;;;1.83;1.70;;;;;;;;;;5080318;28;20851;-79
2023/01/27 12:01:58;;;;;;;1.90;1.80;;;;;;;;;;5083356;28;20466;-79
2023/01/27 12:04:33;;;;;;;3.77;1.93;;;;;;;;;;5081230;28;20474;-79
2023/01/27 12:07:02;;;;;;;2.60;2.23;;;;;;;;;;5082307;28;20470;-79
2023/01/27 12:09:35;;;;;;;4.20;1.90;;;;;;;;;;5082754;28;20469;-79
2023/01/27 12:12:28;;;;;;;2.47;1.83;;;;;;;;;;5080905;28;21019;-79
2023/01/27 12:14:55;;;;;;;2.13;1.90;;;;;;;;;;5083085;27;20443;-79
2023/01/27 12:17:25;;;;;;;1.70;1.60;;;;;;;;;;5080611;28;20487;-79
2023/01/27 12:19:53;;;;;;;1.63;1.53;;;;;;;;;;5081699;28;20470;-79
2023/01/27 12:22:24;;;;;;;2.23;1.90;;;;;;;;;;5081812;28;20459;-81
2023/01/27 12:24:57;;;;;;;1.60;1.50;;;;;;;;;;5088855;28;20549;-82
2023/01/27 12:27:25;;;;;;;4.30;1.40;;;;;;;;;;5081680;28;20471;-79
2023/01/27 12:29:54;;;;;;;1.37;1.27;;;;;;;;;;5075524;28;20458;-79
2023/01/27 12:32:22;;;;;;;1.57;1.30;;;;;;;;;;5081922;28;20469;-79
2023/01/27 12:34:50;;;;;;;2.60;1.47;;;;;;;;;;5082057;28;20846;-79
2023/01/27 12:37:20;;;;;;;1.47;1.37;;;;;;;;;;5081356;28;20486;-79
2023/01/27 12:39:51;;;;;;;2.43;2.23;;;;;;;;;;5080546;28;20499;-80
2023/01/27 12:42:36;;;;;;;1.13;1.10;;;;;;;;;;5082725;28;20536;-79
2023/01/27 12:45:17;;;;;;;1.90;1.70;;;;;;;;;;5081303;28;20465;-79
2023/01/27 12:47:54;;;;;;;1.90;1.73;;;;;;;;;;5082794;28;21104;-79
2023/01/27 12:50:22;;;;;;;1.47;1.30;;;;;;;;;;5079963;28;20462;-79
2023/01/27 12:53:02;;;;;;;1.50;1.40;;;;;;;;;;5081001;28;21066;-79
2023/01/27 12:55:30;;;;;;;1.30;1.20;;;;;;;;;;5080161;28;20991;-79
2023/01/27 12:57:59;;;;;;;1.70;1.03;;;;;;;;;;5080395;28;20543;-76
2023/01/27 13:00:25;;;;;;;1.00;1.00;;;;;;;;;;5078811;28;20489;-78
2023/01/27 13:02:53;;;;;;;1.30;1.30;;;;;;;;;;5074190;28;20482;-78
2023/01/27 13:05:21;;;;;;;0.93;0.93;;;;;;;;;;5082375;28;20458;-79
2023/01/27 13:07:50;;;;;;;2.20;1.53;;;;;;;;;;5079967;28;20454;-78
2023/01/27 13:10:19;;;;;;;4.63;2.00;;;;;;;;;;5082832;28;20471;-79
2023/01/27 13:12:49;;;;;;;2.13;1.37;;;;;;;;;;5081124;28;20862;-78
2023/01/27 13:15:19;;;;;;;2.30;1.57;;;;;;;;;;5079580;28;21375;-78
2023/01/27 13:17:47;;;;;;;1.57;1.47;;;;;;;;;;5078134;28;20458;-79
2023/01/27 13:20:19;;;;;;;1.93;1.53;;;;;;;;;;5079839;28;20474;-78
2023/01/27 13:22:47;;;;;;;2.60;2.07;;;;;;;;;;5080005;28;20461;-78
2023/01/27 13:25:17;;;;;;;2.07;1.83;;;;;;;;;;5078269;28;21007;-78
2023/01/27 13:27:44;;;;;;;1.50;1.40;;;;;;;;;;5078390;28;20455;-79
2023/01/27 13:30:14;;;;;;;2.60;1.80;;;;;;;;;;5080169;28;20462;-78
2023/01/27 13:32:44;;;;;;;2.00;1.70;;;;;;;;;;5077739;28;21111;-78
2023/01/27 13:35:17;;;;;;;1.77;1.37;;;;;;;;;;5078939;28;20463;-78
2023/01/27 13:37:46;;;;;;;1.70;1.60;;;;;;;;;;5078538;28;21312;-78
2023/01/27 13:40:16;;;;;;;4.17;1.73;;;;;;;;;;5080294;28;20462;-78
2023/01/27 13:42:46;;;;;;;2.10;1.90;;;;;;;;;;5080324;28;20834;-78
2023/01/27 13:45:14;;;;;;;1.97;1.87;;;;;;;;;;5079712;28;20472;-78
2023/01/27 13:47:45;;;;;;;2.33;2.23;;;;;;;;;;5080369;28;20450;-78
2023/01/27 13:50:18;;;;;;;2.10;1.90;;;;;;;;;;5079681;28;20461;-78
2023/01/27 13:52:46;;;;;;;2.13;2.03;;;;;;;;;;5081758;28;20467;-78
2023/01/27 13:55:12;;;;;;;2.43;2.23;;;;;;;;;;5079390;28;20470;-78
2023/01/27 13:57:52;;;;;;;3.70;2.77;;;;;;;;;;5080753;28;20465;-78
2023/01/27 14:00:22;;;;;;;2.60;2.40;;;;;;;;;;5079186;28;21098;-78
2023/01/27 14:03:19;;;;;;;2.83;2.63;;;;;;;;;;5077602;28;20470;-78
2023/01/27 14:06:10;;;;;;;3.43;2.80;;;;;;;;;;5077563;28;20481;-78
2023/01/27 14:08:44;;;;;;;2.30;2.10;;;;;;;;;;5080293;28;20454;-78
2023/01/27 14:11:15;;;;;;;3.10;2.80;;;;;;;;;;5076533;28;20475;-78
2023/01/27 14:13:49;;;;;;;3.50;3.20;;;;;;;;;;5080081;28;20485;-79
2023/01/27 14:16:18;;;;;;;3.80;3.10;;;;;;;;;;5079238;28;20492;-79
2023/01/27 14:18:50;;;;;;;4.27;3.87;;;;;;;;;;5076334;28;20844;-79
2023/01/27 14:21:23;;;;;;;3.40;3.10;;;;;;;;;;5079536;27;20475;-79
2023/01/27 14:23:59;;;;;;;3.27;3.07;;;;;;;;;;5080657;28;20478;-79
2023/01/27 14:26:34;;;;;;;3.97;3.10;;;;;;;;;;5077361;28;20549;-79
2023/01/27 14:29:10;;;;;;;3.97;2.87;;;;;;;;;;5080724;28;20460;-79
2023/01/27 14:31:47;;;;;;;3.53;3.17;;;;;;;;;;5079291;28;20486;-79
2023/01/27 14:34:24;;;;;;;3.90;2.60;;;;;;;;;;5080699;28;20478;-79
2023/01/27 14:36:54;;;;;;;2.80;2.60;;;;;;;;;;5077716;28;20466;-79
2023/01/27 14:39:27;;;;;;;3.70;3.40;;;;;;;;;;5080231;28;20458;-79
2023/01/27 14:41:59;;;;;;;3.87;3.47;;;;;;;;;;5080086;28;20916;-79
2023/01/27 14:44:31;;;;;;;3.17;2.73;;;;;;;;;;5079233;28;20536;-79
2023/01/27 14:47:04;;;;;;;3.17;2.87;;;;;;;;;;5078258;28;20478;-79
2023/01/27 14:49:39;;;;;;;4.40;3.60;;;;;;;;;;5079250;28;20454;-79
2023/01/27 14:52:11;;;;;;;3.43;3.00;;;;;;;;;;5078722;28;20845;-80
2023/01/27 14:54:46;;;;;;;4.37;3.23;;;;;;;;;;5077840;28;20489;-79
2023/01/27 14:57:25;;;;;;;3.83;2.97;;;;;;;;;;5073747;28;20580;-79
2023/01/27 14:59:54;;;;;;;3.20;2.60;;;;;;;;;;5079404;28;20466;-79
2023/01/27 15:02:30;;;;;;;3.40;2.63;;;;;;;;;;5078570;28;20971;-79
2023/01/27 15:05:03;;;;;;;3.10;2.80;;;;;;;;;;5079951;28;20450;-79
2023/01/27 15:07:37;;;;;;;2.67;2.47;;;;;;;;;;5080391;28;20462;-79
2023/01/27 15:10:15;;;;;;;3.00;2.77;;;;;;;;;;5082967;28;20469;-79
2023/01/27 15:13:01;;;;;;;3.10;2.90;;;;;;;;;;5081039;28;20458;-79
2023/01/27 15:15:35;;;;;;;2.27;2.10;;;;;;;;;;5056437;28;20478;-79
2023/01/27 15:18:09;;;;;;;2.93;2.63;;;;;;;;;;5083647;28;20457;-79
2023/01/27 15:20:52;;;;;;;4.20;2.30;;;;;;;;;;5083030;28;20485;-79
2023/01/27 15:23:26;;;;;;;3.17;2.70;;;;;;;;;;5079043;28;20466;-79
2023/01/27 15:25:54;;;;;;;3.77;2.50;;;;;;;;;;5079776;28;20854;-79
2023/01/27 15:28:24;;;;;;;3.53;1.87;;;;;;;;;;5078141;28;20477;-78
2023/01/27 15:31:11;;;;;;;3.90;2.33;;;;;;;;;;5080464;28;20473;-79